Time;durP1;ratioP1;P1;durP2;ratioP2;P2;SDS_P1;SDS_P2;PMS_P1;PMS_P2;Temp;Humidity;BMP_temperature;BMP_pressure;BME280_temperature;BME280_humidity;BME280_pressure;Samples;Min_cycle;Max_cycle;Signal;HPM_P1;HPM_P2
2023/01/29 00:02:09;;;;;;;4.40;3.40;;;;;;;;;;5007459;28;20215;-71
2023/01/29 00:04:35;;;;;;;4.50;3.00;;;;;;;;;;5002957;28;20650;-70
2023/01/29 00:07:00;;;;;;;3.60;2.87;;;;;;;;;;5020637;28;20210;-70
2023/01/29 00:09:26;;;;;;;4.80;3.30;;;;;;;;;;5014698;28;20631;-70
2023/01/29 00:11:52;;;;;;;4.77;3.43;;;;;;;;;;5019268;28;20723;-70
2023/01/29 00:14:18;;;;;;;3.37;3.07;;;;;;;;;;5016922;28;20446;-70
2023/01/29 00:16:43;;;;;;;4.60;3.47;;;;;;;;;;5018283;28;20189;-71
2023/01/29 00:19:08;;;;;;;3.50;2.90;;;;;;;;;;4998948;28;20524;-70
2023/01/29 00:21:33;;;;;;;4.93;3.87;;;;;;;;;;5001312;28;20237;-70
2023/01/29 00:23:59;;;;;;;5.23;3.70;;;;;;;;;;5021005;28;20208;-70
2023/01/29 00:26:25;;;;;;;6.23;4.23;;;;;;;;;;5023800;28;20208;-70
2023/01/29 00:28:50;;;;;;;8.50;4.23;;;;;;;;;;5011474;28;20192;-70
2023/01/29 00:31:16;;;;;;;5.40;4.07;;;;;;;;;;5022814;28;20214;-70
2023/01/29 00:33:42;;;;;;;5.23;4.33;;;;;;;;;;5019753;28;20257;-70
2023/01/29 00:36:08;;;;;;;6.13;4.57;;;;;;;;;;5023879;28;20443;-70
2023/01/29 00:38:34;;;;;;;6.37;3.73;;;;;;;;;;5022689;28;20184;-70
2023/01/29 00:46:38;;;;;;;8.13;4.50;;;;;;;;;;5020790;28;20571;-70
2023/01/29 00:49:03;;;;;;;5.40;4.17;;;;;;;;;;5019269;28;20435;-71
2023/01/29 00:51:28;;;;;;;7.27;3.90;;;;;;;;;;5004024;28;20176;-70
2023/01/29 00:53:57;;;;;;;5.50;3.87;;;;;;;;;;5027371;28;20200;-71
2023/01/29 00:56:22;;;;;;;6.53;4.07;;;;;;;;;;5013100;28;20180;-70
2023/01/29 00:58:48;;;;;;;6.20;3.70;;;;;;;;;;5030567;28;20453;-70
2023/01/29 01:01:13;;;;;;;4.63;4.17;;;;;;;;;;5033875;28;20188;-70
2023/01/29 01:03:41;;;;;;;5.10;4.07;;;;;;;;;;5031598;28;20199;-70
2023/01/29 01:06:07;;;;;;;5.83;4.40;;;;;;;;;;5012898;28;20219;-70
2023/01/29 01:11:19;;;;;;;5.27;4.33;;;;;;;;;;5023834;28;20441;-70
2023/01/29 01:13:44;;;;;;;7.17;4.60;;;;;;;;;;5023604;28;20462;-70
2023/01/29 01:16:10;;;;;;;6.67;5.17;;;;;;;;;;5005438;28;20188;-70
2023/01/29 01:18:36;;;;;;;8.10;5.10;;;;;;;;;;5028069;28;20184;-70
2023/01/29 01:21:02;;;;;;;9.07;5.83;;;;;;;;;;5022927;28;21130;-70
2023/01/29 01:23:27;;;;;;;7.87;4.27;;;;;;;;;;5024239;28;20451;-70
2023/01/29 01:25:52;;;;;;;6.93;5.17;;;;;;;;;;5019830;28;20243;-70
2023/01/29 01:28:18;;;;;;;7.23;4.50;;;;;;;;;;5023313;28;20176;-70
2023/01/29 01:30:43;;;;;;;7.97;4.87;;;;;;;;;;5023265;28;20185;-69
2023/01/29 01:33:08;;;;;;;6.47;4.70;;;;;;;;;;5003501;28;20266;-70
2023/01/29 01:35:34;;;;;;;5.20;4.50;;;;;;;;;;5022850;28;20183;-70
2023/01/29 01:37:59;;;;;;;7.40;5.40;;;;;;;;;;5012344;28;20210;-70
2023/01/29 01:40:24;;;;;;;8.70;5.20;;;;;;;;;;5018792;28;20192;-70
2023/01/29 01:42:51;;;;;;;7.93;5.70;;;;;;;;;;5016630;28;20196;-70
2023/01/29 01:45:18;;;;;;;8.47;5.27;;;;;;;;;;5017839;28;20189;-70
2023/01/29 01:47:49;;;;;;;6.57;5.20;;;;;;;;;;5017119;28;20438;-71
2023/01/29 01:50:16;;;;;;;6.47;5.43;;;;;;;;;;5019142;23;20504;-75
2023/01/29 01:52:44;;;;;;;6.40;5.40;;;;;;;;;;5008414;28;20478;-75
2023/01/29 01:55:11;;;;;;;6.03;4.93;;;;;;;;;;4989254;28;20541;-75
2023/01/29 01:57:37;;;;;;;9.03;5.43;;;;;;;;;;5002909;28;20541;-75
2023/01/29 02:00:11;;;;;;;7.83;5.17;;;;;;;;;;4996104;28;20964;-74
2023/01/29 02:10:50;;;;;;;7.07;5.33;;;;;;;;;;5001765;28;20463;-74
2023/01/29 02:13:19;;;;;;;6.13;5.20;;;;;;;;;;5005807;28;20432;-73
2023/01/29 02:15:47;;;;;;;5.77;5.07;;;;;;;;;;5007616;28;20185;-74
2023/01/29 02:18:14;;;;;;;8.10;5.90;;;;;;;;;;5011806;28;21772;-76
2023/01/29 02:20:41;;;;;;;8.47;5.30;;;;;;;;;;4995260;28;20557;-74
2023/01/29 02:23:39;;;;;;;7.10;5.73;;;;;;;;;;4991359;28;20469;-74
2023/01/29 02:26:16;;;;;;;7.07;5.43;;;;;;;;;;4983349;28;20462;-74
2023/01/29 02:28:57;;;;;;;7.00;5.77;;;;;;;;;;5016582;28;20488;-74
2023/01/29 02:31:48;;;;;;;7.70;6.37;;;;;;;;;;5007971;28;20435;-74
2023/01/29 02:34:13;;;;;;;8.40;6.00;;;;;;;;;;5007833;28;21019;-73
2023/01/29 02:36:45;;;;;;;7.97;5.80;;;;;;;;;;5008328;28;20470;-73
2023/01/29 02:39:27;;;;;;;9.37;6.63;;;;;;;;;;5013747;28;20225;-73
2023/01/29 02:42:10;;;;;;;7.70;6.17;;;;;;;;;;5008276;28;20470;-74
2023/01/29 02:44:38;;;;;;;9.93;6.73;;;;;;;;;;4986754;28;20489;-74
2023/01/29 02:47:08;;;;;;;7.50;6.70;;;;;;;;;;5008487;28;20512;-74
2023/01/29 02:49:39;;;;;;;10.70;6.30;;;;;;;;;;5000093;28;20474;-75
2023/01/29 02:52:10;;;;;;;9.73;7.33;;;;;;;;;;4999997;28;21091;-73
2023/01/29 02:54:42;;;;;;;8.80;6.90;;;;;;;;;;5003906;28;20502;-73
2023/01/29 02:57:15;;;;;;;9.90;7.20;;;;;;;;;;4995990;28;20438;-73
2023/01/29 02:59:44;;;;;;;9.27;7.43;;;;;;;;;;5002993;28;20547;-73
2023/01/29 03:02:12;;;;;;;10.13;7.47;;;;;;;;;;5002255;28;20440;-74
2023/01/29 03:04:41;;;;;;;11.23;8.03;;;;;;;;;;5007140;28;20471;-75
2023/01/29 03:07:09;;;;;;;8.80;7.30;;;;;;;;;;4975890;28;20862;-73
2023/01/29 03:09:46;;;;;;;12.17;8.17;;;;;;;;;;4977942;28;20486;-73
2023/01/29 03:12:27;;;;;;;9.20;7.83;;;;;;;;;;5002006;28;20435;-76
2023/01/29 03:15:13;;;;;;;11.97;9.00;;;;;;;;;;4995133;28;20428;-74
2023/01/29 03:18:04;;;;;;;12.00;8.93;;;;;;;;;;4989389;28;20435;-74
2023/01/29 03:20:33;;;;;;;10.70;8.87;;;;;;;;;;4999629;28;20464;-73
2023/01/29 03:23:09;;;;;;;12.77;9.97;;;;;;;;;;5002404;28;20434;-73
2023/01/29 03:33:56;;;;;;;13.43;10.10;;;;;;;;;;5011422;28;20435;-75
2023/01/29 03:36:36;;;;;;;11.43;9.77;;;;;;;;;;5017364;28;20488;-73
2023/01/29 03:39:03;;;;;;;11.43;10.23;;;;;;;;;;5010881;28;20455;-74
2023/01/29 03:41:32;;;;;;;13.50;10.90;;;;;;;;;;5007257;28;20933;-75
2023/01/29 03:43:57;;;;;;;17.63;11.60;;;;;;;;;;5001760;28;20428;-73
2023/01/29 03:46:31;;;;;;;12.90;11.53;;;;;;;;;;4998630;28;20544;-76
2023/01/29 03:48:56;;;;;;;12.70;11.20;;;;;;;;;;4980029;28;20231;-74
2023/01/29 03:51:24;;;;;;;16.60;11.93;;;;;;;;;;5007940;28;20459;-73
2023/01/29 03:53:53;;;;;;;15.23;12.63;;;;;;;;;;5006168;28;20653;-74
2023/01/29 03:56:27;;;;;;;15.27;12.63;;;;;;;;;;5010236;28;20955;-74
2023/01/29 03:59:10;;;;;;;13.60;12.13;;;;;;;;;;5005743;28;20442;-73
2023/01/29 04:01:41;;;;;;;15.00;12.70;;;;;;;;;;4991470;28;20431;-76
2023/01/29 04:04:06;;;;;;;15.00;12.80;;;;;;;;;;5006744;28;20515;-73
2023/01/29 04:06:34;;;;;;;14.20;12.17;;;;;;;;;;5005952;28;20475;-74
2023/01/29 04:08:59;;;;;;;13.07;11.77;;;;;;;;;;5004792;28;20200;-74
2023/01/29 04:11:26;;;;;;;14.43;12.93;;;;;;;;;;5008769;28;20424;-75
2023/01/29 04:13:52;;;;;;;16.17;12.90;;;;;;;;;;5007999;28;20369;-75
2023/01/29 04:16:20;;;;;;;15.57;11.90;;;;;;;;;;5006603;28;20522;-76
2023/01/29 04:18:47;;;;;;;15.13;13.00;;;;;;;;;;4989412;28;20279;-74
2023/01/29 04:21:16;;;;;;;17.37;14.47;;;;;;;;;;5005331;28;20514;-74
2023/01/29 04:23:44;;;;;;;19.43;13.93;;;;;;;;;;5009841;28;20448;-73
2023/01/29 04:26:10;;;;;;;15.80;13.83;;;;;;;;;;5004146;28;20476;-74
2023/01/29 04:28:45;;;;;;;15.70;13.87;;;;;;;;;;5001916;28;20426;-74
2023/01/29 04:31:12;;;;;;;15.60;13.93;;;;;;;;;;4986737;28;20274;-74
2023/01/29 04:33:50;;;;;;;16.13;13.60;;;;;;;;;;4994585;28;20429;-75
2023/01/29 04:36:18;;;;;;;15.37;12.87;;;;;;;;;;4988652;28;20848;-75
2023/01/29 04:38:43;;;;;;;16.90;13.87;;;;;;;;;;4988521;28;20438;-74
2023/01/29 04:41:11;;;;;;;18.20;14.83;;;;;;;;;;5008479;28;20464;-75
2023/01/29 04:44:00;;;;;;;18.47;14.27;;;;;;;;;;5010574;28;20228;-74
2023/01/29 04:46:25;;;;;;;26.87;13.67;;;;;;;;;;4999672;28;20466;-75
2023/01/29 04:49:00;;;;;;;20.87;14.67;;;;;;;;;;5007686;28;20986;-75
2023/01/29 04:51:37;;;;;;;16.00;12.90;;;;;;;;;;5006944;28;20308;-73
2023/01/29 04:54:02;;;;;;;16.83;14.03;;;;;;;;;;5008841;28;20502;-75
2023/01/29 04:56:32;;;;;;;16.30;13.67;;;;;;;;;;5012711;28;20435;-76
2023/01/29 04:59:03;;;;;;;18.87;15.73;;;;;;;;;;5015117;28;20200;-76
2023/01/29 05:01:31;;;;;;;18.90;14.70;;;;;;;;;;4985091;28;20441;-74
2023/01/29 05:03:59;;;;;;;18.90;15.47;;;;;;;;;;4991127;28;20435;-74
2023/01/29 05:06:25;;;;;;;17.57;15.30;;;;;;;;;;5009317;28;20462;-74
2023/01/29 05:08:50;;;;;;;20.20;15.10;;;;;;;;;;4987308;28;20791;-75
2023/01/29 05:11:17;;;;;;;19.47;15.10;;;;;;;;;;5003920;28;20520;-77
2023/01/29 05:13:42;;;;;;;21.03;16.87;;;;;;;;;;5003555;28;20191;-75
2023/01/29 05:16:11;;;;;;;22.43;16.30;;;;;;;;;;5008238;28;20799;-74
2023/01/29 05:18:37;;;;;;;19.40;15.50;;;;;;;;;;5002767;28;20224;-75
2023/01/29 05:21:04;;;;;;;17.00;14.93;;;;;;;;;;4986162;28;20519;-75
2023/01/29 05:23:30;;;;;;;20.70;16.40;;;;;;;;;;4989489;28;20216;-76
2023/01/29 05:25:56;;;;;;;18.30;15.87;;;;;;;;;;5010105;28;20554;-75
2023/01/29 05:28:22;;;;;;;16.13;13.80;;;;;;;;;;5003544;28;20188;-74
2023/01/29 05:30:48;;;;;;;17.80;14.20;;;;;;;;;;4993092;28;20200;-76
2023/01/29 05:33:15;;;;;;;19.50;13.27;;;;;;;;;;5012921;28;20428;-74
2023/01/29 05:35:41;;;;;;;17.10;14.10;;;;;;;;;;5016169;28;20442;-74
2023/01/29 05:38:07;;;;;;;16.13;13.50;;;;;;;;;;5010816;28;20435;-75
2023/01/29 05:40:32;;;;;;;15.20;13.07;;;;;;;;;;4994992;28;20209;-77
2023/01/29 05:42:57;;;;;;;15.43;13.33;;;;;;;;;;4999283;28;20467;-74
2023/01/29 05:45:23;;;;;;;18.83;13.53;;;;;;;;;;4995315;28;20264;-74
2023/01/29 05:47:48;;;;;;;18.50;14.10;;;;;;;;;;4993690;28;20177;-74
2023/01/29 05:50:14;;;;;;;18.33;14.87;;;;;;;;;;5010959;28;20212;-74
2023/01/29 05:52:39;;;;;;;16.70;14.30;;;;;;;;;;4990151;28;20745;-75
2023/01/29 05:55:05;;;;;;;17.30;15.43;;;;;;;;;;5017341;28;20191;-75
2023/01/29 05:57:33;;;;;;;18.83;15.37;;;;;;;;;;5003249;28;20185;-74
2023/01/29 05:59:59;;;;;;;16.60;14.40;;;;;;;;;;5020241;28;20670;-72
2023/01/29 06:02:24;;;;;;;18.73;15.60;;;;;;;;;;4996286;28;20441;-75
2023/01/29 06:04:51;;;;;;;18.03;16.20;;;;;;;;;;4991853;28;20180;-75
2023/01/29 06:07:16;;;;;;;16.03;13.83;;;;;;;;;;4993891;28;20219;-75
2023/01/29 06:09:41;;;;;;;16.73;14.93;;;;;;;;;;4992296;28;20817;-76
2023/01/29 06:12:07;;;;;;;18.73;15.30;;;;;;;;;;5011371;28;20230;-75
2023/01/29 06:14:32;;;;;;;16.03;14.20;;;;;;;;;;5007293;28;20172;-75
2023/01/29 06:16:58;;;;;;;15.90;14.20;;;;;;;;;;5001043;28;20184;-75
2023/01/29 06:19:23;;;;;;;18.07;15.30;;;;;;;;;;4989062;28;20272;-77
2023/01/29 06:21:48;;;;;;;21.03;16.10;;;;;;;;;;4997050;28;20872;-75
2023/01/29 06:24:14;;;;;;;19.27;16.20;;;;;;;;;;5002521;28;20187;-75
2023/01/29 06:26:39;;;;;;;18.63;16.27;;;;;;;;;;5007669;28;20215;-73
2023/01/29 06:29:05;;;;;;;22.73;18.07;;;;;;;;;;4981918;28;20903;-75
2023/01/29 06:31:31;;;;;;;21.37;17.60;;;;;;;;;;4985618;28;20488;-75
2023/01/29 06:33:56;;;;;;;19.70;17.60;;;;;;;;;;5002786;28;20718;-75
2023/01/29 06:36:21;;;;;;;21.40;17.50;;;;;;;;;;5007671;28;20436;-75
2023/01/29 06:38:47;;;;;;;20.97;16.67;;;;;;;;;;4989379;28;20246;-73
2023/01/29 06:41:14;;;;;;;17.83;15.20;;;;;;;;;;4987814;28;20205;-76
2023/01/29 06:43:42;;;;;;;26.23;18.13;;;;;;;;;;5005071;28;20219;-76
2023/01/29 06:46:07;;;;;;;23.23;17.20;;;;;;;;;;5004364;28;20467;-75
2023/01/29 06:48:33;;;;;;;18.70;16.57;;;;;;;;;;4997895;28;20419;-75
2023/01/29 06:51:05;;;;;;;19.83;16.43;;;;;;;;;;5006044;28;20205;-75
2023/01/29 06:53:32;;;;;;;19.50;16.03;;;;;;;;;;5004012;28;20186;-77
2023/01/29 06:55:57;;;;;;;22.83;16.83;;;;;;;;;;5006782;28;20519;-77
2023/01/29 06:58:22;;;;;;;19.73;17.07;;;;;;;;;;5009498;28;20611;-74
2023/01/29 07:00:48;;;;;;;22.87;18.07;;;;;;;;;;4996938;28;20207;-72
2023/01/29 07:03:13;;;;;;;24.10;19.03;;;;;;;;;;5001006;28;20176;-73
2023/01/29 07:05:39;;;;;;;23.57;18.13;;;;;;;;;;4998839;28;20232;-72
2023/01/29 07:08:04;;;;;;;23.83;18.27;;;;;;;;;;4984969;28;20556;-72
2023/01/29 07:10:29;;;;;;;22.90;18.43;;;;;;;;;;5004020;28;20736;-73
2023/01/29 07:12:55;;;;;;;22.13;16.80;;;;;;;;;;5001593;28;20843;-73
2023/01/29 07:15:20;;;;;;;21.40;17.43;;;;;;;;;;5001650;28;20271;-74
2023/01/29 07:17:59;;;;;;;20.90;17.00;;;;;;;;;;5008116;28;20250;-72
2023/01/29 07:20:25;;;;;;;19.20;15.13;;;;;;;;;;4980198;28;20311;-71
2023/01/29 07:22:51;;;;;;;20.53;15.73;;;;;;;;;;4998073;28;20482;-74
2023/01/29 07:25:16;;;;;;;17.33;15.53;;;;;;;;;;5006488;28;20443;-76
2023/01/29 07:27:41;;;;;;;22.23;16.00;;;;;;;;;;5010559;28;20233;-77
2023/01/29 07:30:07;;;;;;;21.57;17.37;;;;;;;;;;5008690;28;21225;-76
2023/01/29 07:32:32;;;;;;;18.30;15.97;;;;;;;;;;5014707;28;20172;-74
2023/01/29 07:34:58;;;;;;;18.03;15.73;;;;;;;;;;5019449;28;20169;-76
2023/01/29 07:37:23;;;;;;;19.50;16.63;;;;;;;;;;5018369;28;20168;-74
2023/01/29 07:39:48;;;;;;;20.77;16.33;;;;;;;;;;4998431;28;20230;-74
2023/01/29 07:42:14;;;;;;;23.03;16.77;;;;;;;;;;5011604;28;20173;-73
2023/01/29 07:44:39;;;;;;;18.93;16.10;;;;;;;;;;5000561;28;20180;-77
2023/01/29 07:47:04;;;;;;;22.57;17.30;;;;;;;;;;5010319;28;20696;-75
2023/01/29 07:49:33;;;;;;;22.10;16.80;;;;;;;;;;5009875;28;20212;-79
2023/01/29 07:51:58;;;;;;;21.30;17.50;;;;;;;;;;5011373;28;20690;-78
2023/01/29 07:54:24;;;;;;;19.20;16.97;;;;;;;;;;5009374;28;20538;-77
2023/01/29 07:56:49;;;;;;;20.63;17.57;;;;;;;;;;5015093;28;20315;-77
2023/01/29 07:59:15;;;;;;;23.70;18.10;;;;;;;;;;5006423;28;20201;-79
2023/01/29 08:01:49;;;;;;;19.37;17.10;;;;;;;;;;5005129;28;20200;-77
2023/01/29 08:04:14;;;;;;;22.20;17.50;;;;;;;;;;5015503;28;20180;-75
2023/01/29 08:06:40;;;;;;;24.77;18.40;;;;;;;;;;5012595;28;20463;-76
2023/01/29 08:09:06;;;;;;;20.30;17.00;;;;;;;;;;5016194;28;20653;-77
2023/01/29 08:11:31;;;;;;;22.83;18.30;;;;;;;;;;5001657;28;20178;-76
2023/01/29 08:13:57;;;;;;;21.20;17.00;;;;;;;;;;5000108;28;20442;-78
2023/01/29 08:16:22;;;;;;;22.30;18.17;;;;;;;;;;4988248;28;20189;-74
2023/01/29 08:18:47;;;;;;;19.90;16.63;;;;;;;;;;5008717;28;20669;-75
2023/01/29 08:21:13;;;;;;;20.90;17.30;;;;;;;;;;5006119;28;20185;-76
2023/01/29 08:23:41;;;;;;;20.20;17.70;;;;;;;;;;5006028;28;20696;-74
2023/01/29 08:26:07;;;;;;;21.17;17.30;;;;;;;;;;5009383;28;20465;-74
2023/01/29 08:28:32;;;;;;;23.83;17.80;;;;;;;;;;5008797;28;20431;-76
2023/01/29 08:30:57;;;;;;;25.10;17.90;;;;;;;;;;5006879;28;20197;-75
2023/01/29 08:33:24;;;;;;;19.87;17.77;;;;;;;;;;5018750;28;20181;-75
2023/01/29 08:35:50;;;;;;;23.30;17.87;;;;;;;;;;4999726;28;20173;-78
2023/01/29 08:38:16;;;;;;;20.10;17.70;;;;;;;;;;5005723;28;21821;-76
2023/01/29 08:40:41;;;;;;;22.57;17.57;;;;;;;;;;5014872;28;20483;-76
2023/01/29 08:43:07;;;;;;;21.03;18.80;;;;;;;;;;5012296;28;20234;-78
2023/01/29 08:45:33;;;;;;;22.10;17.73;;;;;;;;;;5015801;28;20227;-75
2023/01/29 08:47:58;;;;;;;21.60;18.67;;;;;;;;;;5009694;28;20931;-75
2023/01/29 08:50:24;;;;;;;21.57;19.27;;;;;;;;;;5013316;28;20829;-76
2023/01/29 08:52:49;;;;;;;26.13;19.73;;;;;;;;;;5008489;28;20181;-72
2023/01/29 08:55:15;;;;;;;22.33;19.93;;;;;;;;;;5008720;28;20196;-72
2023/01/29 08:57:40;;;;;;;26.67;20.50;;;;;;;;;;5001662;28;20215;-73
2023/01/29 09:00:06;;;;;;;24.30;19.93;;;;;;;;;;4994786;28;20300;-74
2023/01/29 09:02:31;;;;;;;22.00;18.70;;;;;;;;;;5000931;28;20531;-75
2023/01/29 09:04:56;;;;;;;21.77;19.40;;;;;;;;;;5011413;28;20439;-72
2023/01/29 09:07:22;;;;;;;23.23;20.60;;;;;;;;;;4997441;28;20673;-73
2023/01/29 09:09:47;;;;;;;23.57;19.77;;;;;;;;;;4993030;28;20251;-76
2023/01/29 09:12:13;;;;;;;23.37;19.70;;;;;;;;;;5005744;28;20176;-74
2023/01/29 09:14:38;;;;;;;24.80;22.10;;;;;;;;;;5013789;28;20703;-74
2023/01/29 09:17:03;;;;;;;22.60;19.47;;;;;;;;;;5011498;28;20180;-73
2023/01/29 09:19:29;;;;;;;28.73;24.23;;;;;;;;;;4988731;28;20685;-73
2023/01/29 09:21:54;;;;;;;27.53;22.03;;;;;;;;;;5014018;28;20196;-73
2023/01/29 09:24:19;;;;;;;25.93;21.97;;;;;;;;;;5007721;28;20211;-75
2023/01/29 09:26:44;;;;;;;23.07;19.80;;;;;;;;;;5010203;28;20217;-75
2023/01/29 09:29:10;;;;;;;23.50;20.00;;;;;;;;;;5008127;28;20193;-74
2023/01/29 09:31:35;;;;;;;26.50;19.80;;;;;;;;;;5011237;28;20723;-73
2023/01/29 09:34:01;;;;;;;26.80;21.20;;;;;;;;;;5008723;28;20184;-75
2023/01/29 09:36:26;;;;;;;27.83;21.07;;;;;;;;;;5004271;28;20180;-73
2023/01/29 09:38:51;;;;;;;25.27;21.30;;;;;;;;;;5010210;28;20251;-75
2023/01/29 09:41:29;;;;;;;24.20;21.70;;;;;;;;;;5009214;28;20180;-74
2023/01/29 09:43:56;;;;;;;23.60;21.03;;;;;;;;;;5002159;28;20192;-74
2023/01/29 09:46:24;;;;;;;24.83;21.73;;;;;;;;;;5009219;28;20497;-74
2023/01/29 09:48:59;;;;;;;31.53;24.40;;;;;;;;;;4993364;28;20420;-74
2023/01/29 09:51:29;;;;;;;28.27;23.23;;;;;;;;;;5003249;28;20443;-75
2023/01/29 09:54:04;;;;;;;33.10;23.77;;;;;;;;;;4992861;28;20447;-74
2023/01/29 09:56:30;;;;;;;25.90;21.43;;;;;;;;;;4990970;28;20435;-75
2023/01/29 09:58:57;;;;;;;27.43;24.47;;;;;;;;;;4993901;28;20454;-74
2023/01/29 10:01:25;;;;;;;26.37;22.30;;;;;;;;;;4990378;28;20388;-73
2023/01/29 10:03:53;;;;;;;27.57;22.70;;;;;;;;;;5000592;28;20965;-73
2023/01/29 10:06:25;;;;;;;44.70;33.40;;;;;;;;;;5014275;28;20455;-75
2023/01/29 10:09:12;;;;;;;43.90;33.60;;;;;;;;;;5010672;28;20432;-74
2023/01/29 10:11:40;;;;;;;32.70;22.80;;;;;;;;;;5007246;28;20494;-73
2023/01/29 10:14:06;;;;;;;30.87;27.03;;;;;;;;;;5008635;28;20543;-73
2023/01/29 10:16:40;;;;;;;32.70;24.77;;;;;;;;;;5012428;28;20519;-74
2023/01/29 10:19:25;;;;;;;28.07;22.63;;;;;;;;;;5009999;28;20271;-73
2023/01/29 10:22:17;;;;;;;33.23;23.13;;;;;;;;;;5015257;28;20416;-72
2023/01/29 10:24:50;;;;;;;28.27;23.00;;;;;;;;;;5008793;28;20522;-73
2023/01/29 10:27:16;;;;;;;26.60;22.90;;;;;;;;;;5012375;28;20455;-75
2023/01/29 10:29:43;;;;;;;26.93;22.63;;;;;;;;;;5009361;28;20449;-74
2023/01/29 10:32:13;;;;;;;26.33;23.47;;;;;;;;;;4996030;28;20908;-73
2023/01/29 10:34:47;;;;;;;25.80;22.83;;;;;;;;;;5005249;28;20949;-72
2023/01/29 10:37:23;;;;;;;28.77;22.13;;;;;;;;;;5011439;28;20530;-75
2023/01/29 10:39:48;;;;;;;31.00;24.80;;;;;;;;;;4993143;28;20563;-72
2023/01/29 10:42:14;;;;;;;34.03;26.33;;;;;;;;;;4989329;28;20910;-72
2023/01/29 10:44:52;;;;;;;30.43;24.57;;;;;;;;;;5018346;28;20177;-73
2023/01/29 10:47:31;;;;;;;28.77;23.67;;;;;;;;;;5017083;28;20297;-73
2023/01/29 10:49:59;;;;;;;32.57;25.93;;;;;;;;;;5011872;28;20555;-75
2023/01/29 10:52:27;;;;;;;28.97;23.57;;;;;;;;;;5011101;28;20508;-73
2023/01/29 10:55:04;;;;;;;30.57;23.70;;;;;;;;;;4997702;28;20807;-73
2023/01/29 10:57:36;;;;;;;32.47;24.10;;;;;;;;;;4997659;28;20439;-74
2023/01/29 11:00:12;;;;;;;28.03;22.70;;;;;;;;;;4999298;28;20466;-72
2023/01/29 11:02:42;;;;;;;33.67;25.80;;;;;;;;;;4989643;28;20807;-73
2023/01/29 11:05:27;;;;;;;28.13;23.43;;;;;;;;;;5004019;28;20481;-74
2023/01/29 11:07:59;;;;;;;27.83;24.37;;;;;;;;;;5001206;28;20501;-74
2023/01/29 11:10:25;;;;;;;30.00;23.70;;;;;;;;;;4990078;28;20447;-72
2023/01/29 11:13:25;;;;;;;30.30;24.40;;;;;;;;;;4998454;28;20431;-74
2023/01/29 11:15:51;;;;;;;29.90;23.63;;;;;;;;;;4963775;28;20189;-73
2023/01/29 11:18:17;;;;;;;28.87;23.60;;;;;;;;;;5016846;28;20477;-73
2023/01/29 11:20:45;;;;;;;30.33;24.23;;;;;;;;;;4997676;28;20523;-72
2023/01/29 11:23:40;;;;;;;27.97;23.13;;;;;;;;;;5017942;28;20177;-72
2023/01/29 11:26:09;;;;;;;27.43;24.43;;;;;;;;;;4998974;28;20465;-72
2023/01/29 11:28:35;;;;;;;29.00;23.83;;;;;;;;;;5001227;28;20992;-73
2023/01/29 11:31:01;;;;;;;28.67;23.00;;;;;;;;;;4993983;28;20517;-72
2023/01/29 11:33:27;;;;;;;28.87;22.17;;;;;;;;;;5018238;28;20172;-72
2023/01/29 11:35:54;;;;;;;27.73;23.27;;;;;;;;;;5013437;28;20432;-73
2023/01/29 11:38:24;;;;;;;28.60;22.93;;;;;;;;;;4984642;28;20449;-74
2023/01/29 11:40:50;;;;;;;27.00;23.57;;;;;;;;;;5017140;28;21056;-73
2023/01/29 11:43:29;;;;;;;27.73;23.53;;;;;;;;;;4990203;28;20432;-75
2023/01/29 11:46:00;;;;;;;30.17;22.03;;;;;;;;;;4990438;28;20269;-73
2023/01/29 11:48:42;;;;;;;30.10;22.53;;;;;;;;;;5012382;28;20429;-73
2023/01/29 11:51:09;;;;;;;28.50;23.27;;;;;;;;;;5002452;28;20444;-73
2023/01/29 11:53:38;;;;;;;30.93;23.00;;;;;;;;;;5005106;28;20432;-73
2023/01/29 11:56:26;;;;;;;27.03;22.53;;;;;;;;;;4999317;28;20432;-73
2023/01/29 11:58:52;;;;;;;29.17;23.80;;;;;;;;;;4997941;28;20440;-72
2023/01/29 12:01:26;;;;;;;29.60;24.20;;;;;;;;;;4982670;28;20660;-74
2023/01/29 12:03:52;;;;;;;31.80;23.63;;;;;;;;;;5010484;28;20535;-74
2023/01/29 12:06:22;;;;;;;28.60;23.40;;;;;;;;;;5008673;28;20948;-74
2023/01/29 12:08:56;;;;;;;29.03;22.50;;;;;;;;;;4991517;28;20443;-74
2023/01/29 12:11:36;;;;;;;30.37;22.13;;;;;;;;;;5000713;23;20565;-73
2023/01/29 12:14:04;;;;;;;32.97;22.83;;;;;;;;;;4997794;28;20475;-75
2023/01/29 12:16:34;;;;;;;30.43;23.27;;;;;;;;;;4995460;28;20453;-74
2023/01/29 12:19:05;;;;;;;25.50;21.37;;;;;;;;;;5003046;28;20497;-74
2023/01/29 12:21:36;;;;;;;28.40;21.20;;;;;;;;;;5006782;28;20464;-74
2023/01/29 12:24:16;;;;;;;26.97;21.03;;;;;;;;;;4991023;28;20428;-74
2023/01/29 12:26:45;;;;;;;26.00;21.63;;;;;;;;;;5000382;28;20472;-75
2023/01/29 12:29:32;;;;;;;28.27;23.03;;;;;;;;;;4961075;28;20448;-74
2023/01/29 12:32:08;;;;;;;24.30;19.67;;;;;;;;;;4997900;28;20431;-75
2023/01/29 12:34:52;;;;;;;24.63;20.53;;;;;;;;;;4972407;28;20486;-74
2023/01/29 12:37:24;;;;;;;26.50;21.27;;;;;;;;;;4962345;28;20444;-74
2023/01/29 12:39:52;;;;;;;27.97;21.07;;;;;;;;;;4985154;28;20456;-74
2023/01/29 12:42:18;;;;;;;23.67;20.00;;;;;;;;;;4983685;28;20460;-74
2023/01/29 12:44:53;;;;;;;24.77;20.40;;;;;;;;;;4985764;28;20463;-75
2023/01/29 12:47:21;;;;;;;23.70;20.00;;;;;;;;;;4992630;28;20935;-74
2023/01/29 12:49:51;;;;;;;26.17;20.40;;;;;;;;;;4988830;28;20465;-74
2023/01/29 12:52:35;;;;;;;26.17;21.70;;;;;;;;;;4985119;28;20439;-73
2023/01/29 12:55:03;;;;;;;25.87;19.87;;;;;;;;;;4994919;28;20936;-73
2023/01/29 12:57:41;;;;;;;31.30;24.90;;;;;;;;;;4995566;28;20436;-75
2023/01/29 13:00:15;;;;;;;24.30;19.97;;;;;;;;;;4992152;28;20443;-73
2023/01/29 13:02:43;;;;;;;25.00;20.33;;;;;;;;;;4966380;28;20449;-73
2023/01/29 13:05:20;;;;;;;23.33;20.43;;;;;;;;;;4992883;28;20440;-74
2023/01/29 13:07:48;;;;;;;25.93;20.97;;;;;;;;;;4970234;28;20468;-74
2023/01/29 13:10:17;;;;;;;24.27;19.20;;;;;;;;;;4976344;28;21196;-74
2023/01/29 13:12:54;;;;;;;22.70;20.27;;;;;;;;;;4968204;28;20432;-74
2023/01/29 13:15:23;;;;;;;25.83;20.87;;;;;;;;;;4980521;28;20502;-75
2023/01/29 13:17:52;;;;;;;28.10;19.90;;;;;;;;;;5005696;28;20519;-75
2023/01/29 13:20:23;;;;;;;24.13;21.00;;;;;;;;;;4993928;28;21031;-74
2023/01/29 13:22:49;;;;;;;22.70;19.27;;;;;;;;;;4981791;28;20445;-74
2023/01/29 13:25:15;;;;;;;24.30;19.73;;;;;;;;;;4989499;28;20436;-74
2023/01/29 13:27:41;;;;;;;23.93;19.30;;;;;;;;;;4975284;28;20461;-75
2023/01/29 13:30:07;;;;;;;20.77;18.03;;;;;;;;;;4981207;28;20810;-75
2023/01/29 13:32:33;;;;;;;22.93;20.17;;;;;;;;;;4988813;28;20456;-75
2023/01/29 13:35:03;;;;;;;25.67;20.00;;;;;;;;;;4972791;28;20185;-75
2023/01/29 13:37:31;;;;;;;22.07;18.93;;;;;;;;;;4985586;28;20872;-75
2023/01/29 13:39:58;;;;;;;26.60;19.90;;;;;;;;;;5006967;28;20880;-74
2023/01/29 13:42:53;;;;;;;22.13;19.53;;;;;;;;;;4972153;28;20464;-75
2023/01/29 13:45:27;;;;;;;23.50;19.00;;;;;;;;;;4962017;28;20445;-74
2023/01/29 13:47:53;;;;;;;22.83;19.43;;;;;;;;;;4987090;28;20837;-75
2023/01/29 13:50:36;;;;;;;21.23;18.30;;;;;;;;;;4966622;28;20943;-76
2023/01/29 13:53:03;;;;;;;22.03;18.40;;;;;;;;;;4977711;28;20185;-76
2023/01/29 13:55:37;;;;;;;24.70;19.60;;;;;;;;;;4964302;28;20797;-75
2023/01/29 13:58:03;;;;;;;21.60;19.20;;;;;;;;;;4981708;28;20531;-75
2023/01/29 14:00:34;;;;;;;22.70;20.03;;;;;;;;;;4968095;28;20572;-74
2023/01/29 14:02:59;;;;;;;25.20;17.97;;;;;;;;;;4989378;28;20440;-75
2023/01/29 14:05:28;;;;;;;26.80;20.40;;;;;;;;;;4994068;28;20707;-75
2023/01/29 14:07:53;;;;;;;24.70;18.67;;;;;;;;;;4986149;28;20190;-75
2023/01/29 14:10:21;;;;;;;23.27;18.97;;;;;;;;;;4962995;28;21169;-73
2023/01/29 14:12:47;;;;;;;18.97;16.97;;;;;;;;;;4965341;28;20544;-74
2023/01/29 14:15:15;;;;;;;22.27;17.63;;;;;;;;;;4986091;28;20452;-75
2023/01/29 14:17:53;;;;;;;19.60;17.10;;;;;;;;;;4987202;28;20573;-74
2023/01/29 14:20:20;;;;;;;20.53;18.30;;;;;;;;;;4991346;28;20464;-74
2023/01/29 14:22:53;;;;;;;19.63;17.50;;;;;;;;;;4983196;28;20527;-74
2023/01/29 14:25:19;;;;;;;20.30;18.10;;;;;;;;;;4994509;28;21002;-74
2023/01/29 14:27:48;;;;;;;22.37;19.90;;;;;;;;;;4972277;28;20866;-75
2023/01/29 14:30:16;;;;;;;23.00;20.00;;;;;;;;;;4988732;28;20448;-75
2023/01/29 14:32:45;;;;;;;22.53;20.13;;;;;;;;;;4965292;28;20552;-73
2023/01/29 14:35:18;;;;;;;22.10;19.07;;;;;;;;;;4984030;28;20432;-74
2023/01/29 14:37:46;;;;;;;22.33;18.67;;;;;;;;;;4973020;28;21088;-72
2023/01/29 14:40:11;;;;;;;22.90;19.23;;;;;;;;;;4990540;28;20563;-71
2023/01/29 14:42:38;;;;;;;21.90;19.33;;;;;;;;;;4989924;28;20506;-74
2023/01/29 14:45:22;;;;;;;19.77;16.23;;;;;;;;;;4965813;28;20182;-73
2023/01/29 14:47:47;;;;;;;20.70;16.00;;;;;;;;;;5000806;28;20460;-73
2023/01/29 14:50:28;;;;;;;21.43;17.23;;;;;;;;;;4982931;28;20452;-74
2023/01/29 14:53:08;;;;;;;20.57;17.40;;;;;;;;;;4983324;28;20264;-74
2023/01/29 14:55:41;;;;;;;20.73;18.60;;;;;;;;;;4983252;28;20434;-74
2023/01/29 14:58:12;;;;;;;20.90;18.37;;;;;;;;;;4968590;28;20941;-73